Time;durP1;ratioP1;P1;durP2;ratioP2;P2;SDS_P1;SDS_P2;PMS_P1;PMS_P2;Temp;Humidity;BMP_temperature;BMP_pressure;BME280_temperature;BME280_humidity;BME280_pressure;Samples;Min_cycle;Max_cycle;Signal;HPM_P1;HPM_P2
2022/12/15 09:05:33;;;;;;;22.73;13.03;;;;;;;-4.83;79.09;101428.17;1599655;85;21305;-59
2022/12/15 09:09:28;;;;;;;20.15;13.50;;;;;;;1.40;77.16;100957.64;1628760;86;21830;-59
2022/12/15 09:13:32;;;;;;;23.92;14.20;;;;;;;1.50;77.06;100954.72;1655841;83;21226;-60
2022/12/15 09:17:30;;;;;;;21.82;13.98;;;;;;;1.60;76.72;100951.38;1658670;85;22499;-57
2022/12/15 09:21:41;;;;;;;22.10;13.05;;;;;;;1.58;76.60;100939.34;1664511;86;21899;-59
2022/12/15 09:25:27;;;;;;;22.22;14.47;;;;;;;1.57;76.42;100939.45;1682717;83;21253;-60
2022/12/15 09:33:43;;;;;;;25.92;14.85;;;;;;;1.39;76.30;100933.48;1715093;82;21248;-59
2022/12/15 09:37:03;;;;;;;21.73;13.98;;;;;;;1.36;76.31;100929.64;1711154;83;21863;-58
2022/12/15 09:40:20;;;;;;;23.42;15.03;;;;;;;1.25;76.07;100920.91;1659546;85;21239;-59
2022/12/15 09:43:38;;;;;;;24.45;14.13;;;;;;;1.17;76.13;100917.88;1692373;84;21214;-59
2022/12/15 09:47:26;;;;;;;22.00;14.47;;;;;;;1.23;76.28;100902.66;1705922;82;21863;-60
2022/12/15 09:50:46;;;;;;;23.52;14.53;;;;;;;1.33;76.39;100901.03;1655780;86;21248;-59
2022/12/15 09:54:02;;;;;;;22.37;14.33;;;;;;;1.49;76.55;100900.36;1709338;83;21903;-60
2022/12/15 09:57:22;;;;;;;24.82;14.63;;;;;;;1.59;76.41;100890.30;1667899;84;21340;-59
2022/12/15 10:01:16;;;;;;;26.82;14.60;;;;;;;1.74;76.56;100900.89;1703922;82;21378;-59
2022/12/15 10:04:44;;;;;;;22.60;14.47;;;;;;;1.94;76.62;100879.22;1696783;83;21223;-60
2022/12/15 10:08:12;;;;;;;23.12;14.28;;;;;;;2.15;76.57;100881.26;1703428;82;21239;-59
2022/12/15 10:12:18;;;;;;;26.20;14.93;;;;;;;2.23;76.35;100880.22;1681302;84;21398;-59
2022/12/15 10:15:41;;;;;;;25.20;14.38;;;;;;;2.11;75.91;100886.48;1683821;84;21337;-58
2022/12/15 10:19:05;;;;;;;23.90;14.33;;;;;;;2.03;75.86;100873.18;1684379;84;21240;-59
2022/12/15 10:22:33;;;;;;;22.62;14.55;;;;;;;2.02;75.93;100868.25;1683203;84;21298;-59
2022/12/15 10:25:57;;;;;;;27.37;16.77;;;;;;;2.03;75.88;100879.42;1682791;85;21250;-58
2022/12/15 10:29:47;;;;;;;26.75;15.32;;;;;;;2.01;75.79;100889.48;1669231;84;21285;-59
2022/12/15 10:33:27;;;;;;;22.45;15.88;;;;;;;2.04;75.87;100893.31;1683253;85;21265;-59
2022/12/15 10:36:53;;;;;;;25.85;16.30;;;;;;;2.03;75.83;100905.58;1667166;85;21285;-59
2022/12/15 10:40:17;;;;;;;26.45;16.35;;;;;;;1.95;75.71;100899.86;1684225;85;21265;-57
2022/12/15 10:43:44;;;;;;;24.80;15.53;;;;;;;1.91;75.90;100891.58;1665655;85;21305;-58
2022/12/15 10:47:09;;;;;;;25.23;16.23;;;;;;;1.89;75.75;100896.25;1684629;85;21234;-59
2022/12/15 10:50:34;;;;;;;26.37;16.40;;;;;;;1.81;75.91;100890.52;1644977;86;21398;-59
2022/12/15 10:54:12;;;;;;;25.00;15.55;;;;;;;1.85;75.98;100893.38;1665472;85;21265;-58
2022/12/15 10:57:34;;;;;;;23.10;14.25;;;;;;;1.84;75.99;100892.50;1646297;86;21212;-58
2022/12/15 11:00:53;;;;;;;23.98;14.47;;;;;;;1.82;76.04;100893.59;1664091;86;21881;-59
2022/12/15 11:08:23;;;;;;;24.72;15.60;;;;;;;1.68;76.08;100895.05;1657356;84;21509;-59
2022/12/15 11:15:47;;;;;;;25.43;16.17;;;;;;;1.66;76.16;100887.06;1629608;87;21279;-58
2022/12/15 11:19:46;;;;;;;24.85;15.75;;;;;;;1.65;76.33;100885.83;1663636;85;22144;-58
2022/12/15 11:24:19;;;;;;;24.43;16.20;;;;;;;1.72;76.41;100884.41;1717196;82;21216;-59
2022/12/15 11:28:11;;;;;;;30.20;16.73;;;;;;;1.82;76.54;100894.94;1691972;83;21224;-58
2022/12/15 11:31:41;;;;;;;29.30;17.40;;;;;;;1.83;76.45;100898.88;1684634;84;21264;-59
2022/12/15 11:34:55;;;;;;;27.55;17.73;;;;;;;1.78;76.31;100889.36;1636225;86;21266;-58
2022/12/15 11:38:51;;;;;;;36.42;22.73;;;;;;;1.75;76.30;100890.94;1633699;86;21295;-59
2022/12/15 11:42:27;;;;;;;28.92;19.73;;;;;;;1.72;76.33;100895.20;1654822;86;21263;-59
2022/12/15 11:46:15;;;;;;;31.87;19.15;;;;;;;1.64;76.25;100897.56;1628924;86;21240;-59
2022/12/15 11:49:54;;;;;;;35.40;22.37;;;;;;;1.50;76.22;100891.80;1641665;84;21392;-59
2022/12/15 11:53:37;;;;;;;30.95;19.00;;;;;;;1.41;76.32;100904.58;1675332;84;21271;-58
2022/12/15 11:57:25;;;;;;;34.00;19.35;;;;;;;1.34;76.34;100901.91;1813820;76;22242;-58
2022/12/15 12:00:38;;;;;;;31.60;19.12;;;;;;;1.22;76.32;100901.41;1763014;79;21213;-58
2022/12/15 12:04:29;;;;;;;25.95;15.60;;;;;;;1.15;76.51;100887.48;1758866;80;21216;-59
2022/12/15 12:07:48;;;;;;;30.37;17.30;;;;;;;1.14;76.64;100885.73;1759871;80;21417;-58
2022/12/15 12:11:21;;;;;;;27.70;16.85;;;;;;;1.14;76.67;100887.08;1757980;80;21211;-58
2022/12/15 12:15:23;;;;;;;29.23;18.05;;;;;;;1.19;76.73;100874.15;1739883;82;21645;-58
2022/12/15 12:18:48;;;;;;;25.15;15.50;;;;;;;1.25;76.88;100872.88;1727098;81;21720;-59
2022/12/15 12:22:00;;;;;;;26.25;17.25;;;;;;;1.23;76.77;100867.59;1710304;84;22004;-58
2022/12/15 12:25:03;;;;;;;26.15;15.98;;;;;;;1.23;76.76;100869.42;1710191;82;21304;-59
2022/12/15 12:28:23;;;;;;;25.62;16.12;;;;;;;1.25;76.82;100860.75;1647299;85;21681;-58
2022/12/15 12:32:11;;;;;;;26.55;16.02;;;;;;;1.27;76.88;100851.58;1691047;84;21228;-58
2022/12/15 12:35:41;;;;;;;23.83;14.63;;;;;;;1.23;76.81;100854.12;1706071;82;21368;-58
2022/12/15 12:39:13;;;;;;;28.42;17.17;;;;;;;1.20;76.85;100861.07;1705477;82;21275;-58
2022/12/15 12:42:41;;;;;;;28.40;17.65;;;;;;;1.15;76.81;100845.69;1730013;81;21964;-59
2022/12/15 12:46:13;;;;;;;29.30;17.65;;;;;;;1.18;76.93;100848.65;1758542;79;21642;-59
2022/12/15 12:49:55;;;;;;;28.67;16.67;;;;;;;1.14;76.89;100841.75;1739679;82;21322;-59
2022/12/15 12:53:08;;;;;;;29.85;17.05;;;;;;;1.07;76.89;100848.05;1771483;79;21247;-59
2022/12/15 12:56:50;;;;;;;27.07;16.93;;;;;;;0.95;76.71;100834.03;1759723;80;21236;-59
2022/12/15 13:00:30;;;;;;;28.38;15.18;;;;;;;0.90;76.80;100833.98;1714982;82;21400;-57
2022/12/15 13:03:52;;;;;;;29.52;16.37;;;;;;;0.85;76.82;100832.95;1672821;84;21342;-58
2022/12/15 13:07:33;;;;;;;31.42;18.20;;;;;;;0.72;76.79;100825.31;1733748;82;21794;-59
2022/12/15 13:10:59;;;;;;;27.67;17.55;;;;;;;0.68;76.95;100826.46;1703399;83;21633;-58
2022/12/15 13:14:24;;;;;;;29.18;17.23;;;;;;;0.73;77.10;100820.29;1699504;81;21311;-58
2022/12/15 13:17:46;;;;;;;;;;;;;;;0.65;77.01;100815.89;1747244;81;21206;-58
2022/12/15 13:21:08;;;;;;;28.62;16.82;;;;;;;0.62;77.13;100822.84;1689017;84;20194;-58
2022/12/15 13:24:43;;;;;;;27.52;17.05;;;;;;;0.53;77.06;100812.69;1758265;81;21552;-58
2022/12/15 13:28:19;;;;;;;30.25;17.77;;;;;;;0.47;77.16;100817.14;1724636;81;21246;-58
2022/12/15 13:31:54;;;;;;;28.75;17.67;;;;;;;0.49;77.33;100822.42;1750813;79;21213;-58
2022/12/15 13:35:11;;;;;;;30.27;19.65;;;;;;;0.50;77.40;100815.59;1746858;81;21758;-59
2022/12/15 13:38:27;;;;;;;30.88;18.15;;;;;;;0.49;77.38;100812.49;1744719;81;21742;-58
2022/12/15 13:41:42;;;;;;;39.63;22.62;;;;;;;0.48;77.40;100813.47;1727350;80;21208;-59
2022/12/15 13:45:13;;;;;;;33.98;19.87;;;;;;;0.44;77.43;100797.16;1764644;80;21386;-59
2022/12/15 13:48:47;;;;;;;29.57;18.10;;;;;;;0.42;77.44;100796.86;1751443;81;21390;-59
2022/12/15 13:52:40;;;;;;;31.05;17.37;;;;;;;0.46;77.58;100801.09;1743394;79;21456;-58
2022/12/15 13:55:54;;;;;;;31.15;18.25;;;;;;;0.46;77.61;100796.55;1598399;89;21803;-58
2022/12/15 13:59:49;;;;;;;29.50;16.93;;;;;;;0.43;77.54;100795.41;1620720;85;21266;-58
2022/12/15 14:03:19;;;;;;;31.02;17.57;;;;;;;0.45;77.67;100805.59;1637807;85;21787;-58
2022/12/15 14:06:35;;;;;;;35.88;19.67;;;;;;;0.45;77.64;100806.07;1656726;85;21246;-58
2022/12/15 14:09:56;;;;;;;34.70;18.95;;;;;;;0.46;77.67;100808.66;1660103;85;21239;-58
2022/12/15 14:13:30;;;;;;;29.40;18.07;;;;;;;0.46;77.65;100801.09;1662074;81;21509;-58
2022/12/15 14:16:44;;;;;;;27.02;16.95;;;;;;;0.44;77.59;100802.54;1690800;82;21286;-59
2022/12/15 14:20:00;;;;;;;30.23;18.55;;;;;;;0.41;77.58;100798.70;1661991;85;21605;-59
2022/12/15 14:23:31;;;;;;;31.68;18.02;;;;;;;0.40;77.62;100805.55;1675215;84;21416;-59
2022/12/15 14:26:45;;;;;;;31.95;19.35;;;;;;;0.41;77.67;100805.44;1655351;86;21294;-58
2022/12/15 14:29:55;;;;;;;34.20;18.37;;;;;;;0.44;77.69;100811.97;1655781;85;21218;-59
2022/12/15 14:33:23;;;;;;;30.85;17.62;;;;;;;0.44;77.68;100807.05;1661582;81;21304;31
2022/12/15 14:36:38;;;;;;;41.60;22.17;;;;;;;0.47;77.73;100802.80;1669955;85;21255;-58
2022/12/15 14:39:58;;;;;;;40.35;22.45;;;;;;;0.48;77.72;100805.39;1722308;81;21252;-58
2022/12/15 14:43:16;;;;;;;41.45;22.22;;;;;;;0.49;77.71;100803.58;1732817;82;21224;-58
2022/12/15 14:46:55;;;;;;;35.80;19.35;;;;;;;0.53;77.77;100803.73;1745755;82;21204;-59
2022/12/15 14:50:20;;;;;;;33.63;18.70;;;;;;;0.51;77.74;100799.80;1718589;82;22332;-58
2022/12/15 14:53:38;;;;;;;34.20;18.62;;;;;;;0.54;77.75;100804.98;1684102;83;21241;-58
2022/12/15 14:56:47;;;;;;;27.98;17.48;;;;;;;0.56;77.74;100808.91;1714322;83;21248;-57
2022/12/15 15:00:01;;;;;;;30.43;18.25;;;;;;;0.60;77.84;100803.72;1692655;83;21543;-59
2022/12/15 15:03:25;;;;;;;30.43;17.40;;;;;;;0.65;77.85;100793.00;1700734;83;21222;-59
2022/12/15 15:06:52;;;;;;;30.35;17.77;;;;;;;0.72;77.84;100796.14;1707325;82;21276;-58
2022/12/15 15:10:02;;;;;;;33.60;19.10;;;;;;;0.77;77.86;100794.01;1669019;83;21283;-58
2022/12/15 15:13:32;;;;;;;29.60;17.55;;;;;;;0.83;77.85;100789.55;1662066;85;21597;-58
2022/12/15 15:16:54;;;;;;;29.55;17.52;;;;;;;0.87;77.83;100786.53;1706004;83;21604;-58
2022/12/15 15:20:10;;;;;;;28.57;16.95;;;;;;;0.93;77.91;100791.53;1699428;82;21219;-57
2022/12/15 15:23:22;;;;;;;30.15;16.52;;;;;;;1.00;77.95;100789.28;1716701;82;21243;-59
2022/12/15 15:26:36;;;;;;;29.02;15.95;;;;;;;1.02;77.83;100794.93;1699304;83;22095;-60
2022/12/15 15:29:54;;;;;;;27.35;16.50;;;;;;;0.97;77.64;100790.81;1718201;82;21276;-58
2022/12/15 15:33:06;;;;;;;30.65;16.90;;;;;;;0.90;77.53;100789.52;1707371;82;21591;-59
2022/12/15 15:36:24;;;;;;;30.23;16.55;;;;;;;0.89;77.60;100782.38;1759252;80;21217;-58
2022/12/15 15:39:35;;;;;;;31.48;15.55;;;;;;;0.94;77.68;100786.51;1723724;82;21227;-59
2022/12/15 15:42:49;;;;;;;30.52;16.90;;;;;;;0.95;77.58;100784.17;1723864;82;21244;-58
2022/12/15 15:46:04;;;;;;;29.25;17.12;;;;;;;0.90;77.45;100785.00;1750292;80;21275;-58
2022/12/15 15:49:15;;;;;;;26.97;17.00;;;;;;;0.86;77.43;100778.55;1750719;81;21219;-58
2022/12/15 15:52:26;;;;;;;29.00;16.30;;;;;;;0.83;77.40;100766.64;1708845;84;21184;-58
2022/12/15 15:55:39;;;;;;;28.92;16.07;;;;;;;0.79;77.39;100771.41;1689534;84;21228;-57
2022/12/15 15:58:56;;;;;;;27.90;16.82;;;;;;;0.77;77.43;100772.45;1741861;81;22134;-59
2022/12/15 16:02:07;;;;;;;30.08;17.02;;;;;;;0.82;77.60;100770.31;1703412;82;21777;-58
2022/12/15 16:05:19;;;;;;;25.12;16.27;;;;;;;0.85;77.58;100766.06;1737831;82;22043;-58
2022/12/15 16:08:35;;;;;;;26.30;15.98;;;;;;;0.85;77.55;100761.55;1739189;82;21259;-59
2022/12/15 16:11:46;;;;;;;26.48;15.68;;;;;;;0.83;77.48;100759.43;1739342;82;22122;-58
2022/12/15 16:14:59;;;;;;;30.70;17.67;;;;;;;0.79;77.42;100752.55;1719238;82;21318;-58
2022/12/15 16:18:10;;;;;;;33.73;16.67;;;;;;;0.81;77.53;100751.93;1735841;82;21295;-58
2022/12/15 16:21:24;;;;;;;34.92;17.40;;;;;;;0.83;77.53;100753.17;1687777;84;21224;-58
2022/12/15 16:24:36;;;;;;;27.32;16.60;;;;;;;0.83;77.55;100752.70;1687501;84;21816;-59
2022/12/15 16:27:44;;;;;;;26.77;17.12;;;;;;;0.85;77.54;100764.24;1681746;84;21232;-58
2022/12/15 16:30:58;;;;;;;28.52;16.87;;;;;;;0.83;77.47;100755.39;1689763;85;21542;-58
2022/12/15 16:34:17;;;;;;;26.02;15.13;;;;;;;0.84;77.53;100760.30;1687419;84;21362;-58
2022/12/15 16:37:36;;;;;;;30.82;16.15;;;;;;;0.90;77.76;100767.96;1685938;85;21390;-58
2022/12/15 16:40:51;;;;;;;28.70;16.67;;;;;;;1.00;77.77;100757.77;1871708;76;22730;-58
2022/12/15 16:44:06;;;;;;;29.10;17.10;;;;;;;0.96;77.82;100749.55;1784664;78;21209;-58
2022/12/15 16:47:26;;;;;;;31.97;16.23;;;;;;;0.96;77.66;100756.75;1777519;79;21339;-58
2022/12/15 16:50:45;;;;;;;26.97;15.80;;;;;;;0.90;77.56;100754.02;1783475;79;21201;-59
2022/12/15 16:53:56;;;;;;;30.00;16.40;;;;;;;0.90;77.52;100754.02;1762538;80;21691;-59
2022/12/15 16:57:17;;;;;;;29.00;16.05;;;;;;;0.90;77.47;100772.87;1760476;81;21398;-59
2022/12/15 17:00:33;;;;;;;34.15;18.32;;;;;;;0.93;77.55;100779.87;1805936;79;21244;-58
2022/12/15 17:03:50;;;;;;;31.25;17.10;;;;;;;0.98;77.57;100781.27;1805467;78;21374;-59
2022/12/15 17:07:02;;;;;;;34.08;17.60;;;;;;;1.07;77.70;100791.91;1806225;79;21247;-57
2022/12/15 17:10:28;;;;;;;28.15;17.20;;;;;;;1.16;77.81;100793.48;1705709;81;21292;-59
2022/12/15 17:13:46;;;;;;;33.92;18.48;;;;;;;1.24;77.79;100785.73;1687356;83;21245;-60
2022/12/15 17:17:05;;;;;;;33.80;17.20;;;;;;;1.33;77.79;100803.95;1694306;84;21864;-59
2022/12/15 17:20:27;;;;;;;36.77;17.98;;;;;;;1.40;77.70;100794.95;1739907;81;21371;-59
2022/12/15 17:23:35;;;;;;;32.45;18.48;;;;;;;1.46;77.63;100789.98;1741326;80;21774;-59
2022/12/15 17:26:53;;;;;;;31.87;17.20;;;;;;;1.46;77.48;100791.34;1739066;82;21401;-58
2022/12/15 17:30:04;;;;;;;37.77;19.07;;;;;;;1.48;77.44;100793.92;1695886;84;21296;-58
2022/12/15 17:33:31;;;;;;;31.52;16.62;;;;;;;1.48;77.34;100793.45;1735504;82;22099;-59
2022/12/15 17:36:46;;;;;;;32.70;17.73;;;;;;;1.50;77.32;100794.21;1721978;82;21343;-59
2022/12/15 17:40:00;;;;;;;31.68;17.20;;;;;;;1.57;77.41;100798.66;1744804;80;21346;-59
2022/12/15 17:43:13;;;;;;;34.45;17.67;;;;;;;1.60;77.40;100793.55;1724333;82;21374;-59
2022/12/15 17:46:21;;;;;;;27.98;16.75;;;;;;;1.59;77.36;100792.67;1736511;82;21205;-58
2022/12/15 17:49:43;;;;;;;30.37;17.15;;;;;;;1.64;77.40;100786.95;1720609;82;21244;-59
2022/12/15 17:52:58;;;;;;;25.48;16.55;;;;;;;1.66;77.39;100791.28;1736058;82;21877;-59
2022/12/15 17:56:08;;;;;;;26.90;16.32;;;;;;;1.67;77.36;100787.59;1705925;83;21736;-59
2022/12/15 17:59:31;;;;;;;30.80;16.20;;;;;;;1.72;77.35;100798.05;1729115;82;21916;-58
2022/12/15 18:02:55;;;;;;;31.50;18.02;;;;;;;1.76;77.43;100798.23;1721219;82;21905;-58
2022/12/15 18:06:09;;;;;;;33.05;17.35;;;;;;;1.81;77.43;100798.77;1704200;82;21508;-58
2022/12/15 18:09:26;;;;;;;28.10;16.85;;;;;;;1.77;77.29;100800.81;1734205;81;21279;-58
2022/12/15 18:12:43;;;;;;;26.30;15.83;;;;;;;1.77;77.25;100802.16;1721592;82;21233;-58
2022/12/15 18:15:55;;;;;;;32.95;16.87;;;;;;;1.72;77.08;100796.23;1736376;82;21209;-58
2022/12/15 18:19:10;;;;;;;35.70;18.35;;;;;;;1.71;77.15;100794.99;1735859;82;21240;-58
2022/12/15 18:22:27;;;;;;;35.03;18.45;;;;;;;1.70;77.25;100802.22;1721096;82;21355;-58
2022/12/15 18:25:36;;;;;;;30.82;17.37;;;;;;;1.70;77.21;100802.72;1719338;82;21363;-58
2022/12/15 18:28:51;;;;;;;32.38;18.30;;;;;;;1.76;77.22;100807.16;1845319;76;22311;-58
2022/12/15 18:32:01;;;;;;;29.18;17.77;;;;;;;1.73;77.23;100810.59;1774463;80;21414;-58
2022/12/15 18:35:28;;;;;;;30.48;17.17;;;;;;;1.73;77.24;100795.75;1772705;80;21406;-59
2022/12/15 18:38:40;;;;;;;27.48;16.62;;;;;;;1.77;77.31;100798.59;1773479;79;21280;-58
2022/12/15 18:41:55;;;;;;;30.05;17.55;;;;;;;1.80;77.31;100804.64;1772478;80;21817;-59
2022/12/15 18:45:11;;;;;;;28.73;17.73;;;;;;;1.81;77.32;100804.16;1771863;79;21272;-59
2022/12/15 18:48:30;;;;;;;31.02;17.80;;;;;;;1.86;77.48;100806.02;1744158;79;21331;-58
2022/12/15 18:51:46;;;;;;;30.80;17.87;;;;;;;1.93;77.56;100796.52;1766277;80;21234;-59
2022/12/15 18:54:57;;;;;;;30.85;19.45;;;;;;;2.00;77.62;100789.20;1773181;79;21805;-59
2022/12/15 18:58:07;;;;;;;34.27;18.98;;;;;;;2.00;77.51;100789.71;1771685;79;21371;-59
2022/12/15 19:01:21;;;;;;;34.85;18.87;;;;;;;2.01;77.47;100794.13;1772304;80;21351;-58
2022/12/15 19:04:41;;;;;;;33.58;18.42;;;;;;;2.05;77.50;100801.88;1766324;80;21876;-59
2022/12/15 19:07:59;;;;;;;31.45;18.50;;;;;;;2.11;77.55;100800.59;1771679;79;21213;-59
2022/12/15 19:11:39;;;;;;;31.02;18.40;;;;;;;2.15;77.53;100795.33;1772604;80;22195;-58
2022/12/15 19:14:50;;;;;;;34.38;18.45;;;;;;;2.15;77.35;100803.42;1773402;79;21873;-58
2022/12/15 19:25:02;;;;;;;26.37;17.52;;;;;;;2.26;77.49;100819.23;1773496;79;21256;-58
2022/12/15 19:28:22;;;;;;;31.93;18.80;;;;;;;2.25;77.33;100813.94;1774305;79;22113;-58
2022/12/15 19:31:35;;;;;;;32.00;19.05;;;;;;;2.23;77.27;100805.95;1773387;79;21177;-59
2022/12/15 19:34:50;;;;;;;32.40;19.57;;;;;;;2.21;77.19;100809.72;1773414;79;21738;-58
2022/12/15 19:38:02;;;;;;;36.42;21.35;;;;;;;2.22;77.23;100802.02;1773627;79;21809;-58
2022/12/15 19:41:21;;;;;;;37.05;20.00;;;;;;;2.24;77.19;100806.31;1770206;80;21327;-58
2022/12/15 19:44:38;;;;;;;33.73;20.45;;;;;;;2.20;77.17;100802.13;1775876;79;21359;-58
2022/12/15 19:47:46;;;;;;;33.60;19.92;;;;;;;2.25;77.37;100809.38;1771259;80;21217;-59
2022/12/15 19:51:03;;;;;;;31.70;19.73;;;;;;;2.28;77.34;100806.95;1772147;80;21402;-58
2022/12/15 19:54:26;;;;;;;32.13;18.25;;;;;;;2.27;77.20;100809.27;1771228;79;21885;-58
2022/12/15 19:57:34;;;;;;;31.73;19.40;;;;;;;2.25;77.15;100806.67;1771667;80;21205;-58
2022/12/15 20:00:56;;;;;;;33.92;18.98;;;;;;;2.22;77.05;100811.47;1771589;80;21209;-59
2022/12/15 20:04:12;;;;;;;30.55;19.27;;;;;;;2.20;77.09;100810.23;1770573;79;21327;-58
2022/12/15 20:07:41;;;;;;;31.70;19.85;;;;;;;2.19;77.11;100812.53;1770579;80;21316;-58
2022/12/15 20:10:53;;;;;;;32.00;18.70;;;;;;;2.15;77.11;100805.65;1773805;81;21233;-56
2022/12/15 20:14:03;;;;;;;35.25;21.02;;;;;;;2.18;77.25;100814.88;1765001;80;21221;-59
2022/12/15 20:17:18;;;;;;;30.02;18.30;;;;;;;2.23;77.28;100811.83;1762418;80;21304;-57
2022/12/15 20:20:27;;;;;;;31.50;18.62;;;;;;;2.25;77.29;100805.84;1770563;80;21268;-59
2022/12/15 20:23:37;;;;;;;35.03;21.00;;;;;;;2.26;77.21;100811.13;1763508;79;21225;-59
2022/12/15 20:26:52;;;;;;;31.37;19.12;;;;;;;2.24;77.17;100813.55;1775310;80;21319;-59
2022/12/15 20:30:05;;;;;;;30.52;18.90;;;;;;;2.24;77.15;100823.00;1760747;80;21272;-58
2022/12/15 20:33:21;;;;;;;30.97;18.52;;;;;;;2.24;77.19;100830.62;1774171;79;21355;-58
2022/12/15 20:36:37;;;;;;;31.55;19.50;;;;;;;2.26;77.23;100838.61;1771025;80;21343;-58
2022/12/15 20:39:46;;;;;;;30.40;18.73;;;;;;;2.25;77.19;100849.89;1764245;80;21209;-57
2022/12/15 20:43:07;;;;;;;30.70;19.25;;;;;;;2.27;77.28;100847.08;1786814;79;21347;-57
2022/12/15 20:46:30;;;;;;;32.88;20.10;;;;;;;2.28;77.25;100852.88;1771044;80;21181;-58
2022/12/15 20:49:49;;;;;;;32.53;19.82;;;;;;;2.25;77.20;100851.23;1769114;79;21896;-58
2022/12/15 20:53:04;;;;;;;32.25;20.37;;;;;;;2.26;77.25;100854.81;1788195;79;21241;-57
2022/12/15 20:56:31;;;;;;;35.38;20.50;;;;;;;2.34;77.53;100862.75;1783924;79;21237;-58
2022/12/15 20:59:41;;;;;;;32.90;19.70;;;;;;;2.43;77.61;100859.84;1786097;78;21196;-57
2022/12/15 21:02:54;;;;;;;36.03;19.87;;;;;;;2.43;77.42;100860.70;1765091;80;21185;-58
2022/12/15 21:06:07;;;;;;;33.53;20.57;;;;;;;2.42;77.29;100859.00;1772267;80;21706;-57
2022/12/15 21:09:26;;;;;;;32.42;19.70;;;;;;;2.45;77.33;100871.40;1773829;79;21260;-58
2022/12/15 21:12:39;;;;;;;33.60;19.65;;;;;;;2.50;77.46;100873.28;1773328;81;21405;-57
2022/12/15 21:15:52;;;;;;;29.82;19.40;;;;;;;2.57;77.46;100871.87;1764574;80;21225;-57
2022/12/15 21:19:12;;;;;;;33.15;19.35;;;;;;;2.60;77.43;100876.53;1749229;80;21828;-57
2022/12/15 21:22:32;;;;;;;36.88;20.97;;;;;;;2.66;77.53;100877.93;1755135;80;21276;-58
2022/12/15 21:25:48;;;;;;;38.00;22.40;;;;;;;2.69;77.55;100887.16;1761446;80;21180;-58
2022/12/15 21:29:03;;;;;;;34.67;20.80;;;;;;;2.74;77.57;100887.69;1763517;80;21363;-57
2022/12/15 21:32:19;;;;;;;34.10;20.82;;;;;;;2.77;77.54;100889.69;1784587;80;21185;-57
2022/12/15 21:35:35;;;;;;;35.03;20.95;;;;;;;2.82;77.59;100895.58;1766341;80;21380;-58
2022/12/15 21:38:49;;;;;;;36.90;22.02;;;;;;;2.86;77.62;100902.50;1773337;79;21201;-57
2022/12/15 21:42:18;;;;;;;34.50;20.88;;;;;;;2.88;77.50;100915.91;1773762;80;21659;-58
2022/12/15 21:45:34;;;;;;;33.28;20.40;;;;;;;2.89;77.43;100921.67;1773183;80;21201;-58
